createdAt,value
2019-01-28T00:02:09.338Z,6.37
2019-01-28T00:04:38.737Z,5.10
2019-01-28T00:07:08.197Z,4.80
2019-01-28T00:09:37.557Z,5.58
2019-01-28T00:12:06.903Z,4.67
2019-01-28T00:14:36.245Z,4.22
2019-01-28T00:17:05.870Z,4.75
2019-01-28T00:19:35.290Z,3.33
2019-01-28T00:22:05.070Z,4.90
2019-01-28T00:24:34.549Z,3.90
2019-01-28T00:27:03.990Z,4.00
2019-01-28T00:29:33.358Z,2.92
2019-01-28T00:32:02.675Z,4.55
2019-01-28T00:34:32.198Z,3.22
2019-01-28T00:37:01.715Z,3.42
2019-01-28T00:39:31.158Z,4.17
2019-01-28T00:42:00.466Z,3.90
2019-01-28T00:44:29.786Z,3.90
2019-01-28T00:46:59.166Z,3.62
2019-01-28T00:49:28.704Z,4.45
2019-01-28T00:51:58.259Z,4.72
2019-01-28T00:54:27.586Z,3.20
2019-01-28T00:56:56.983Z,3.12
2019-01-28T00:59:26.269Z,3.40
2019-01-28T01:01:55.557Z,3.72
2019-01-28T01:04:27.196Z,2.90
2019-01-28T01:06:56.510Z,3.37
2019-01-28T01:09:28.000Z,4.12
2019-01-28T01:12:16.470Z,3.90
2019-01-28T01:14:45.734Z,3.52
2019-01-28T01:17:15.218Z,4.50
2019-01-28T01:19:44.807Z,4.25
2019-01-28T01:22:14.228Z,5.08
2019-01-28T01:24:43.651Z,3.60
2019-01-28T01:27:13.055Z,4.20
2019-01-28T01:29:42.587Z,4.30
2019-01-28T01:32:11.866Z,3.60
2019-01-28T01:34:41.310Z,4.35
2019-01-28T01:37:10.674Z,4.75
2019-01-28T01:39:39.965Z,4.05
2019-01-28T01:42:09.451Z,4.65
2019-01-28T01:44:38.887Z,3.60
2019-01-28T01:47:08.286Z,4.90
2019-01-28T01:49:37.654Z,4.47
2019-01-28T01:52:07.031Z,6.17
2019-01-28T01:54:36.392Z,4.12
2019-01-28T01:57:05.804Z,5.80
2019-01-28T01:59:35.152Z,4.70
2019-01-28T02:02:04.841Z,5.03
2019-01-28T02:04:34.207Z,4.53
2019-01-28T02:07:03.651Z,5.45
2019-01-28T02:09:33.220Z,4.80
2019-01-28T02:12:02.531Z,4.50
2019-01-28T02:14:34.409Z,5.30
2019-01-28T02:17:04.008Z,6.30
2019-01-28T02:19:33.478Z,4.92
2019-01-28T02:22:02.892Z,5.90
2019-01-28T02:24:32.215Z,5.03
2019-01-28T02:27:01.662Z,5.12
2019-01-28T02:29:31.040Z,6.62
2019-01-28T02:32:02.067Z,5.42
2019-01-28T02:34:31.644Z,4.70
2019-01-28T02:37:00.940Z,4.80
2019-01-28T02:39:30.447Z,5.40
2019-01-28T02:42:02.054Z,6.05
2019-01-28T02:44:31.420Z,5.10
2019-01-28T02:47:01.004Z,6.00
2019-01-28T02:49:30.331Z,5.80
2019-01-28T02:51:59.655Z,5.08
2019-01-28T02:54:29.083Z,5.47
2019-01-28T02:56:58.482Z,5.50
2019-01-28T02:59:27.991Z,5.20
2019-01-28T03:01:59.142Z,7.10
2019-01-28T03:04:28.515Z,5.50
2019-01-28T03:06:57.881Z,6.20
2019-01-28T03:09:27.187Z,5.62
2019-01-28T03:11:56.506Z,5.30
2019-01-28T03:14:26.172Z,5.05
2019-01-28T03:16:57.176Z,6.92
2019-01-28T03:19:26.667Z,6.37
2019-01-28T03:21:56.324Z,6.20
2019-01-28T03:24:25.651Z,6.05
2019-01-28T03:26:54.928Z,5.55
2019-01-28T03:29:24.301Z,5.90
2019-01-28T03:31:53.755Z,5.25
2019-01-28T03:34:23.061Z,6.40
2019-01-28T03:36:52.393Z,5.75
2019-01-28T03:39:21.739Z,6.30
2019-01-28T03:41:51.079Z,5.72
2019-01-28T03:44:20.475Z,7.30
2019-01-28T03:46:49.790Z,6.33
2019-01-28T03:49:19.263Z,5.67
2019-01-28T03:51:48.925Z,6.35
2019-01-28T03:54:20.301Z,5.40
2019-01-28T03:56:49.662Z,5.92
2019-01-28T03:59:19.277Z,6.60
2019-01-28T04:01:48.739Z,6.10
2019-01-28T04:04:18.223Z,5.60
2019-01-28T04:06:48.542Z,5.30
2019-01-28T04:09:18.141Z,6.47
2019-01-28T04:11:47.518Z,6.03
2019-01-28T04:14:16.775Z,5.75
2019-01-28T04:16:46.499Z,5.70
2019-01-28T04:19:15.843Z,5.87
2019-01-28T04:21:45.321Z,5.80
2019-01-28T04:24:14.699Z,6.33
2019-01-28T04:26:43.999Z,6.10
2019-01-28T04:29:13.351Z,6.33
2019-01-28T04:31:42.757Z,7.58
2019-01-28T04:34:12.019Z,7.15
2019-01-28T04:36:41.441Z,7.05
2019-01-28T04:39:10.934Z,6.40
2019-01-28T04:41:42.358Z,6.92
2019-01-28T04:44:11.899Z,6.25
2019-01-28T04:46:41.274Z,6.35
2019-01-28T04:49:10.814Z,7.45
2019-01-28T04:51:40.194Z,6.50
2019-01-28T04:54:09.788Z,6.62
2019-01-28T04:56:39.127Z,6.20
2019-01-28T04:59:08.476Z,6.97
2019-01-28T05:01:37.821Z,5.87
2019-01-28T05:04:07.123Z,6.15
2019-01-28T05:06:36.524Z,6.08
2019-01-28T05:09:09.230Z,5.47
2019-01-28T05:11:38.699Z,5.03
2019-01-28T05:14:08.257Z,5.65
2019-01-28T05:16:38.720Z,6.75
2019-01-28T05:19:08.011Z,5.78
2019-01-28T05:21:37.386Z,6.42
2019-01-28T05:24:06.866Z,6.00
2019-01-28T05:26:36.371Z,6.45
2019-01-28T05:29:05.808Z,6.45
2019-01-28T05:31:37.065Z,6.72
2019-01-28T05:34:06.376Z,5.90
2019-01-28T05:36:35.692Z,5.67
2019-01-28T05:39:07.916Z,5.95
2019-01-28T05:41:37.256Z,5.50
2019-01-28T05:44:06.734Z,5.42
2019-01-28T05:46:41.358Z,5.85
2019-01-28T05:49:10.968Z,6.37
2019-01-28T05:51:40.296Z,6.17
2019-01-28T05:54:09.862Z,5.53
2019-01-28T05:56:39.219Z,6.62
2019-01-28T05:59:08.783Z,5.60
2019-01-28T06:01:39.905Z,6.20
2019-01-28T06:04:09.180Z,4.85
2019-01-28T06:06:38.512Z,4.67
2019-01-28T06:09:09.931Z,5.50
2019-01-28T06:11:39.252Z,4.25
2019-01-28T06:14:08.642Z,4.67
2019-01-28T06:16:40.002Z,5.50
2019-01-28T06:19:09.392Z,4.10
2019-01-28T06:21:38.788Z,4.80
2019-01-28T06:24:08.119Z,4.15
2019-01-28T06:26:37.482Z,4.08
2019-01-28T06:29:06.795Z,5.50
2019-01-28T06:31:36.251Z,4.83
2019-01-28T06:34:05.858Z,4.35
2019-01-28T06:36:35.208Z,4.42
2019-01-28T06:39:08.404Z,4.30
2019-01-28T06:41:38.112Z,3.80
2019-01-28T06:44:07.390Z,4.22
2019-01-28T06:46:36.694Z,4.25
2019-01-28T06:49:06.014Z,3.52
2019-01-28T06:51:35.395Z,4.08
2019-01-28T06:54:05.025Z,4.33
2019-01-28T06:56:34.435Z,4.78
2019-01-28T06:59:03.837Z,4.95
2019-01-28T07:01:33.425Z,5.30
2019-01-28T07:04:02.886Z,5.72
2019-01-28T07:06:32.150Z,6.67
2019-01-28T07:09:01.539Z,5.50
2019-01-28T07:11:31.199Z,6.65
2019-01-28T07:14:00.527Z,6.30
2019-01-28T07:16:29.810Z,6.55
2019-01-28T07:18:59.408Z,6.42
2019-01-28T07:21:28.746Z,7.00
2019-01-28T07:23:58.050Z,5.67
2019-01-28T07:26:27.878Z,6.40
2019-01-28T07:29:04.298Z,5.70
2019-01-28T07:31:35.579Z,5.12
2019-01-28T07:34:04.930Z,6.40
2019-01-28T07:36:34.412Z,5.90
2019-01-28T07:39:05.425Z,6.95
2019-01-28T07:41:35.919Z,6.50
2019-01-28T07:44:05.304Z,6.17
2019-01-28T07:46:34.674Z,5.30
2019-01-28T07:49:04.360Z,4.80
2019-01-28T07:51:33.792Z,4.28
2019-01-28T07:54:03.111Z,5.55
2019-01-28T07:56:33.396Z,4.45
2019-01-28T07:59:02.735Z,4.87
2019-01-28T08:01:32.089Z,4.33
2019-01-28T08:04:04.738Z,3.83
2019-01-28T08:06:34.150Z,4.78
2019-01-28T08:09:05.578Z,4.47
2019-01-28T08:11:34.996Z,5.30
2019-01-28T08:14:16.668Z,4.03
2019-01-28T08:16:46.074Z,3.55
2019-01-28T08:19:16.047Z,3.75
2019-01-28T08:21:45.405Z,2.92
2019-01-28T08:24:14.877Z,3.02
2019-01-28T08:26:44.104Z,2.92
2019-01-28T08:29:13.612Z,3.20
2019-01-28T08:31:42.956Z,2.05
2019-01-28T08:34:12.262Z,2.50
2019-01-28T08:36:41.832Z,2.65
2019-01-28T08:39:11.380Z,2.30
2019-01-28T08:41:40.719Z,2.17
2019-01-28T08:44:10.045Z,2.37
2019-01-28T08:46:40.366Z,2.20
2019-01-28T08:49:09.827Z,3.20
2019-01-28T08:51:39.282Z,3.22
2019-01-28T08:54:08.607Z,2.87
2019-01-28T08:56:37.914Z,2.90
2019-01-28T08:59:07.414Z,4.05
2019-01-28T09:01:36.860Z,3.80
2019-01-28T09:04:07.291Z,3.33
2019-01-28T09:06:37.100Z,3.27
2019-01-28T09:09:09.679Z,3.55
2019-01-28T09:11:39.102Z,5.28
2019-01-28T09:14:08.429Z,3.45
2019-01-28T09:16:37.777Z,3.98
2019-01-28T09:19:07.104Z,4.55
2019-01-28T09:21:36.531Z,4.10
2019-01-28T09:24:06.433Z,4.08
2019-01-28T09:26:35.958Z,5.55
2019-01-28T09:29:05.308Z,3.85
2019-01-28T09:31:34.891Z,5.17
2019-01-28T09:34:04.444Z,4.30
2019-01-28T09:36:33.654Z,5.12
2019-01-28T09:39:04.710Z,5.45
2019-01-28T09:41:35.577Z,5.85
2019-01-28T09:44:06.802Z,5.42
2019-01-28T09:46:36.142Z,5.50
2019-01-28T09:49:05.501Z,5.87
2019-01-28T09:51:34.773Z,5.80
2019-01-28T09:54:04.516Z,5.53
2019-01-28T09:56:33.759Z,5.03
2019-01-28T09:59:03.393Z,4.95
2019-01-28T10:01:32.678Z,9.85
2019-01-28T10:04:01.981Z,5.33
2019-01-28T10:06:31.399Z,5.35
2019-01-28T10:09:00.885Z,5.92
2019-01-28T10:11:30.362Z,4.17
2019-01-28T10:13:59.689Z,3.40
2019-01-28T10:16:29.007Z,4.20
2019-01-28T10:18:58.322Z,4.28
2019-01-28T10:21:27.725Z,3.70
2019-01-28T10:23:57.078Z,4.10
2019-01-28T10:26:26.673Z,3.40
2019-01-28T10:28:55.979Z,4.50
2019-01-28T10:31:25.574Z,3.75
2019-01-28T10:33:54.974Z,4.40
2019-01-28T10:36:24.558Z,3.70
2019-01-28T10:38:53.850Z,4.20
2019-01-28T10:41:23.170Z,4.58
2019-01-28T10:43:52.446Z,5.92
2019-01-28T10:46:21.752Z,4.55
2019-01-28T10:48:51.045Z,4.03
2019-01-28T10:51:20.495Z,4.10
2019-01-28T10:53:50.107Z,2.73
2019-01-28T10:56:19.534Z,5.30
2019-01-28T10:58:49.921Z,4.30
2019-01-28T11:01:19.314Z,3.60
2019-01-28T11:03:48.727Z,5.17
2019-01-28T11:06:18.063Z,2.97
2019-01-28T11:08:47.637Z,3.77
2019-01-28T11:11:17.146Z,2.27
2019-01-28T11:13:46.474Z,2.40
2019-01-28T11:16:16.046Z,2.77
2019-01-28T11:18:45.565Z,2.25
2019-01-28T11:21:14.907Z,2.40
2019-01-28T11:23:53.195Z,2.63
2019-01-28T11:26:23.646Z,2.20
2019-01-28T11:28:54.430Z,2.70
2019-01-28T11:31:23.903Z,3.03
2019-01-28T11:33:53.373Z,2.60
2019-01-28T11:36:27.111Z,3.73
2019-01-28T11:38:59.555Z,2.60
2019-01-28T11:41:31.503Z,3.60
2019-01-28T11:44:00.999Z,3.27
2019-01-28T11:46:33.184Z,2.33
2019-01-28T11:49:06.018Z,2.53
2019-01-28T11:51:33.764Z,3.03
2019-01-28T11:54:09.984Z,1.90
2019-01-28T11:56:44.050Z,1.87
2019-01-28T11:59:15.663Z,3.37
2019-01-28T12:01:46.654Z,1.95
2019-01-28T12:04:29.700Z,2.27
2019-01-28T12:07:16.759Z,2.25
2019-01-28T12:09:46.183Z,1.90
2019-01-28T12:12:17.543Z,1.70
2019-01-28T12:14:46.953Z,1.90
2019-01-28T12:17:21.174Z,2.00
2019-01-28T12:19:59.578Z,2.35
2019-01-28T12:22:50.613Z,2.30
2019-01-28T12:25:26.660Z,2.20
2019-01-28T12:28:03.831Z,2.42
2019-01-28T12:30:42.389Z,2.77
2019-01-28T12:33:11.763Z,3.25
2019-01-28T12:35:41.060Z,2.62
2019-01-28T12:38:17.134Z,1.70
2019-01-28T12:40:46.699Z,1.32
2019-01-28T12:43:16.722Z,1.70
2019-01-28T12:45:47.511Z,1.50
2019-01-28T12:51:29.551Z,2.05
2019-01-28T12:53:59.923Z,1.40
2019-01-28T12:56:33.285Z,1.50
2019-01-28T12:59:24.923Z,1.82
2019-01-28T13:02:01.376Z,2.22
2019-01-28T13:04:42.166Z,1.98
2019-01-28T13:07:24.443Z,2.40
2019-01-28T13:10:06.617Z,2.40
2019-01-28T13:12:38.001Z,1.80
2019-01-28T13:15:10.056Z,2.15
2019-01-28T13:17:40.427Z,2.30
2019-01-28T13:20:10.211Z,3.10
2019-01-28T13:22:44.840Z,2.20
2019-01-28T13:25:12.678Z,2.20
2019-01-28T13:27:44.017Z,1.92
2019-01-28T13:30:27.585Z,1.80
2019-01-28T13:32:58.211Z,2.55
2019-01-28T13:35:27.647Z,2.33
2019-01-28T13:37:58.282Z,2.35
2019-01-28T13:40:30.675Z,3.00
2019-01-28T13:43:05.735Z,1.95
2019-01-28T13:45:35.306Z,2.20
2019-01-28T13:48:09.765Z,1.95
2019-01-28T13:50:47.441Z,2.92
2019-01-28T13:57:32.652Z,2.55
2019-01-28T14:00:37.729Z,1.90
2019-01-28T14:03:09.741Z,2.10
2019-01-28T14:06:02.285Z,1.87
2019-01-28T14:08:50.456Z,1.90
2019-01-28T14:11:23.262Z,1.77
2019-01-28T14:13:55.565Z,1.42
2019-01-28T14:16:27.543Z,1.30
2019-01-28T14:18:58.868Z,1.60
2019-01-28T14:21:30.670Z,1.52
2019-01-28T14:24:01.734Z,1.50
2019-01-28T14:26:31.451Z,1.30
2019-01-28T14:29:02.243Z,1.70
2019-01-28T14:31:34.639Z,1.55
2019-01-28T14:34:06.618Z,1.77
2019-01-28T14:36:36.206Z,1.40
2019-01-28T14:39:13.780Z,1.87
2019-01-28T14:41:41.247Z,1.85
2019-01-28T14:44:10.962Z,2.60
2019-01-28T14:46:40.381Z,2.35
2019-01-28T14:49:10.776Z,2.55
2019-01-28T14:51:40.222Z,2.25
2019-01-28T14:54:09.558Z,2.25
2019-01-28T14:56:39.026Z,2.27
2019-01-28T14:59:08.412Z,2.90
2019-01-28T15:01:39.215Z,2.65
2019-01-28T15:04:09.913Z,2.80
2019-01-28T15:06:39.394Z,2.20
2019-01-28T15:09:12.136Z,3.20
2019-01-28T15:11:41.530Z,2.40
2019-01-28T15:14:10.794Z,2.20
2019-01-28T15:16:40.062Z,2.52
2019-01-28T15:19:10.684Z,2.47
2019-01-28T15:21:39.876Z,2.58
2019-01-28T15:24:09.355Z,3.00
2019-01-28T15:26:39.089Z,2.45
2019-01-28T15:29:10.350Z,2.67
2019-01-28T15:31:48.726Z,2.58
2019-01-28T15:37:47.806Z,1.95
2019-01-28T15:40:21.924Z,2.20
2019-01-28T15:42:54.845Z,2.10
2019-01-28T15:45:26.607Z,2.40
2019-01-28T15:47:57.241Z,2.55
2019-01-28T15:50:26.469Z,2.52
2019-01-28T15:52:55.789Z,2.42
2019-01-28T15:55:28.198Z,2.15
2019-01-28T15:57:57.531Z,2.25
2019-01-28T16:00:28.750Z,1.80
2019-01-28T16:02:58.256Z,2.30
2019-01-28T16:05:28.907Z,2.50
2019-01-28T16:08:01.129Z,2.40
2019-01-28T16:10:38.005Z,1.52
2019-01-28T16:13:07.871Z,1.65
2019-01-28T16:15:42.934Z,1.80
2019-01-28T16:18:12.905Z,2.30
2019-01-28T16:20:42.390Z,2.80
2019-01-28T16:23:13.472Z,2.00
2019-01-28T16:25:42.721Z,2.87
2019-01-28T16:28:12.345Z,2.75
2019-01-28T16:30:43.253Z,2.67
2019-01-28T16:33:18.806Z,2.60
2019-01-28T16:35:47.691Z,2.55
2019-01-28T16:38:17.520Z,2.60
2019-01-28T16:40:48.670Z,2.95
2019-01-28T16:43:20.406Z,2.33
2019-01-28T16:45:50.033Z,2.83
2019-01-28T16:48:19.680Z,3.08
2019-01-28T16:50:52.938Z,3.47
2019-01-28T16:53:23.455Z,3.30
2019-01-28T16:55:59.283Z,3.30
2019-01-28T16:58:28.796Z,4.35
2019-01-28T17:00:58.179Z,4.17
2019-01-28T17:03:29.851Z,3.70
2019-01-28T17:05:59.335Z,3.58
2019-01-28T17:08:28.756Z,4.90
2019-01-28T17:10:58.105Z,4.80
2019-01-28T17:13:27.491Z,3.30
2019-01-28T17:15:56.746Z,2.83
2019-01-28T17:18:26.384Z,3.17
2019-01-28T17:20:55.716Z,4.37
2019-01-28T17:23:25.110Z,4.20
2019-01-28T17:25:54.510Z,3.67
2019-01-28T17:28:25.239Z,3.20
2019-01-28T17:30:54.743Z,4.35
2019-01-28T17:33:24.413Z,4.58
2019-01-28T17:35:56.603Z,3.87
2019-01-28T17:38:27.407Z,3.30
2019-01-28T17:40:56.788Z,4.42
2019-01-28T17:43:26.114Z,5.12
2019-01-28T17:45:55.705Z,5.87
2019-01-28T17:48:26.151Z,5.90
2019-01-28T17:50:55.635Z,5.58
2019-01-28T17:53:24.936Z,4.72
2019-01-28T17:55:54.388Z,4.87
2019-01-28T17:58:23.782Z,4.87
2019-01-28T18:01:00.106Z,4.75
2019-01-28T18:03:29.662Z,3.92
2019-01-28T18:05:59.130Z,4.28
2019-01-28T18:08:28.545Z,4.80
2019-01-28T18:10:57.954Z,3.30
2019-01-28T18:13:27.416Z,4.20
2019-01-28T18:15:56.943Z,4.20
2019-01-28T18:18:26.219Z,3.00
2019-01-28T18:20:55.787Z,3.33
2019-01-28T18:23:42.941Z,3.75
2019-01-28T18:26:12.589Z,3.42
2019-01-28T18:28:44.294Z,3.80
2019-01-28T18:31:13.611Z,3.92
2019-01-28T18:33:43.267Z,3.80
2019-01-28T18:36:12.794Z,4.95
2019-01-28T18:38:42.186Z,4.78
2019-01-28T18:41:11.746Z,4.90
2019-01-28T18:43:41.198Z,5.37
2019-01-28T18:46:10.566Z,5.30
2019-01-28T18:48:39.923Z,4.67
2019-01-28T18:51:09.321Z,5.17
2019-01-28T18:53:39.346Z,3.95
2019-01-28T18:56:08.694Z,4.65
2019-01-28T18:58:38.287Z,4.30
2019-01-28T19:01:07.650Z,4.22
2019-01-28T19:03:40.531Z,3.67
2019-01-28T19:06:29.046Z,3.40
2019-01-28T19:09:12.362Z,3.25
2019-01-28T19:12:01.827Z,3.20
2019-01-28T19:14:48.794Z,2.50
2019-01-28T19:17:27.199Z,3.30
2019-01-28T19:20:22.265Z,2.85
2019-01-28T19:22:51.551Z,3.33
2019-01-28T19:25:21.047Z,2.50
2019-01-28T19:27:50.480Z,2.60
2019-01-28T19:30:22.652Z,2.55
2019-01-28T19:32:53.053Z,4.50
2019-01-28T19:35:22.341Z,2.92
2019-01-28T19:37:53.087Z,3.70
2019-01-28T19:40:24.024Z,4.83
2019-01-28T19:42:53.746Z,3.42
2019-01-28T19:45:23.250Z,3.08
2019-01-28T19:47:53.267Z,4.70
2019-01-28T19:50:24.386Z,4.20
2019-01-28T19:52:53.751Z,5.90
2019-01-28T19:55:23.251Z,4.72
2019-01-28T19:57:52.777Z,5.00
2019-01-28T20:00:24.907Z,5.05
2019-01-28T20:02:55.387Z,5.35
2019-01-28T20:05:28.286Z,4.65
2019-01-28T20:08:00.187Z,5.30
2019-01-28T20:10:29.462Z,5.80
2019-01-28T20:12:59.323Z,5.15
2019-01-28T20:15:28.936Z,5.25
2019-01-28T20:17:58.511Z,5.03
2019-01-28T20:20:27.884Z,4.90
2019-01-28T20:22:59.354Z,5.00
2019-01-28T20:25:36.225Z,4.65
2019-01-28T20:28:07.260Z,5.05
2019-01-28T20:30:36.567Z,4.58
2019-01-28T20:33:06.389Z,5.90
2019-01-28T20:35:36.038Z,5.30
2019-01-28T20:38:05.734Z,5.67
2019-01-28T20:40:35.199Z,5.47
2019-01-28T20:43:04.794Z,6.05
2019-01-28T20:45:34.160Z,6.53
2019-01-28T20:48:03.597Z,8.03
2019-01-28T20:50:33.098Z,6.40
2019-01-28T20:53:02.724Z,6.50
2019-01-28T20:55:32.158Z,6.92
2019-01-28T20:58:02.696Z,6.42
2019-01-28T21:00:32.000Z,7.28
2019-01-28T21:03:01.974Z,7.65
2019-01-28T21:05:31.588Z,7.65
2019-01-28T21:08:00.934Z,7.40
2019-01-28T21:10:30.263Z,6.75
2019-01-28T21:13:02.655Z,8.23
2019-01-28T21:15:31.975Z,7.42
2019-01-28T21:18:02.963Z,6.83
2019-01-28T21:20:33.797Z,6.17
2019-01-28T21:23:03.454Z,6.72
2019-01-28T21:25:35.793Z,5.85
2019-01-28T21:28:05.586Z,6.53
2019-01-28T21:30:35.307Z,5.55
2019-01-28T21:33:05.799Z,5.97
2019-01-28T21:36:12.962Z,5.28
2019-01-28T21:38:45.638Z,5.15
2019-01-28T21:41:15.013Z,5.67
2019-01-28T21:43:46.421Z,5.05
2019-01-28T21:46:17.048Z,5.12
2019-01-28T21:48:46.524Z,4.87
2019-01-28T21:51:17.190Z,4.50
2019-01-28T21:53:46.453Z,4.78
2019-01-28T21:56:18.697Z,5.25
2019-01-28T21:58:48.180Z,5.10
2019-01-28T22:01:20.756Z,5.97
2019-01-28T22:03:50.298Z,5.50
2019-01-28T22:06:19.675Z,4.67
2019-01-28T22:08:49.038Z,5.40
2019-01-28T22:11:18.371Z,5.70
2019-01-28T22:13:47.995Z,5.92
2019-01-28T22:16:20.119Z,5.95
2019-01-28T22:18:49.459Z,5.80
2019-01-28T22:21:19.982Z,7.78
2019-01-28T22:23:49.346Z,7.35
2019-01-28T22:26:18.851Z,7.95
2019-01-28T22:28:48.200Z,6.83
2019-01-28T22:31:21.533Z,7.45
2019-01-28T22:33:50.956Z,6.78
2019-01-28T22:36:21.283Z,7.30
2019-01-28T22:38:50.635Z,6.92
2019-01-28T22:41:20.059Z,7.30
2019-01-28T22:43:49.546Z,8.40
2019-01-28T22:46:18.889Z,7.22
2019-01-28T22:48:48.166Z,8.68
2019-01-28T22:51:17.879Z,8.85
2019-01-28T22:53:47.182Z,7.97
2019-01-28T22:56:16.868Z,7.58
2019-01-28T22:58:46.254Z,8.73
2019-01-28T23:01:24.729Z,7.30
2019-01-28T23:03:54.101Z,8.28
2019-01-28T23:06:23.475Z,9.43
2019-01-28T23:08:55.958Z,8.70
2019-01-28T23:11:25.113Z,8.48
2019-01-28T23:14:00.660Z,9.33
2019-01-28T23:16:29.914Z,9.00
2019-01-28T23:18:59.941Z,8.58
2019-01-28T23:21:29.326Z,9.38
2019-01-28T23:23:58.650Z,9.15
2019-01-28T23:26:28.297Z,9.53
2019-01-28T23:28:57.562Z,8.35
2019-01-28T23:31:26.938Z,9.28
2019-01-28T23:33:56.957Z,9.90
2019-01-28T23:36:26.588Z,9.25
2019-01-28T23:38:55.906Z,8.05
2019-01-28T23:41:25.234Z,10.08
2019-01-28T23:43:54.720Z,10.03
2019-01-28T23:46:24.111Z,9.68
2019-01-28T23:48:53.580Z,9.33
2019-01-28T23:51:23.438Z,8.73
2019-01-28T23:53:56.767Z,8.35
2019-01-28T23:56:26.233Z,8.00
2019-01-28T23:58:57.739Z,8.23
